メインページ
METAR-TAF:

METAR-TAF

空港 :

パリ=シャルル・ド・ゴール空港

パリチャールズ・ドゴール, フランス

緯度: 49-01N, 経度: 002-32E, 海抜: 118m

現時点の気象観測

当レポートは37分前の18:30(UTC)に作成
北西の風 7kt
気温 27°C
湿度 37%
気圧 1020 hPa
視程10km以上
1,500メートル以下は雲なし、積乱雲なし

METAR: LFPG 191830Z 31007KT CAVOK 27/11 Q1020 NOSIG

時間: 21:07 (19:07 UTC)

予報

当レポートは2時間7分前の17:00(UTC)に作成
予報は19日の 18時(UTC)から 20日の 24時(UTC)まで有効
西/北西の風 10kt
視程10km以上
1,500メートル以下は雲なし、積乱雲なし
20日の 00時(UTC)から 20日の 10時(UTC)まで一時的に
高度1400ftの千切れ雲あり
確率 40% :
20日の 06時(UTC)から 20日の 09時(UTC)まで一時的に
視程: 4000m
高度900ftの千切れ雲あり
小霧雨
20日の 18時(UTC)から 20日の 21時(UTC)まで徐々に
北/北東の風 5kt

TAF: LFPG 191700Z 1918/2024 29010KT CAVOK TX27/2015Z TN18/2004Z TEMPO 2000/2010 BKN014 PROB40 TEMPO 2006/2009 4000 -DZ BKN009 BECMG 2018/2021 02005KT

4,000以上の空港の気象観測と天気予報(METAR報とTAF報)

利用可能な観測所は地図上に黄色い丸と赤い丸で示す。

丸の上にカーソルを重ねると観測所名を参照できる。

次にクリックすると気象観測と天気予報を参照できる。

マップの切り替え:黒色「×」印の緑ボタンをクリックして拡大、「-」印の緑ボタンをクリックして縮小、緑色の三角印をクリックして隣りの地図に切り替え


METAR-TAF: